Time;durP1;ratioP1;P1;durP2;ratioP2;P2;SDS_P1;SDS_P2;PMS_P1;PMS_P2;Temp;Humidity;BMP_temperature;BMP_pressure;BME280_temperature;BME280_humidity;BME280_pressure;Samples;Min_cycle;Max_cycle;Signal;HPM_P1;HPM_P2
2022/02/17 00:01:07;;;;;;;11.75;2.85;;;12.50;99.90;;;;;;5025302;28;20473;-43
2022/02/17 00:03:33;;;;;;;11.32;2.80;;;12.50;99.90;;;;;;5025363;28;20130;-43
2022/02/17 00:06:00;;;;;;;13.38;2.85;;;12.50;99.90;;;;;;5024188;28;20057;-44
2022/02/17 00:08:25;;;;;;;14.63;2.80;;;12.50;99.90;;;;;;5024845;28;20041;-43
2022/02/17 00:10:51;;;;;;;16.67;3.17;;;12.50;99.90;;;;;;5025125;28;20527;-43
2022/02/17 00:13:16;;;;;;;11.30;3.03;;;12.40;99.90;;;;;;5024369;28;20044;-43
2022/02/17 00:15:42;;;;;;;8.90;2.70;;;12.40;99.90;;;;;;5025437;28;20039;-44
2022/02/17 00:18:21;;;;;;;14.63;3.20;;;12.50;99.90;;;;;;5024802;28;20030;-45
2022/02/17 00:20:48;;;;;;;11.43;2.80;;;12.50;99.90;;;;;;5024070;28;20500;-44
2022/02/17 00:23:13;;;;;;;12.05;2.47;;;12.50;99.90;;;;;;5024890;28;20427;-44
2022/02/17 00:25:39;;;;;;;14.38;3.08;;;12.50;99.90;;;;;;5024860;28;20029;-43
2022/02/17 00:28:04;;;;;;;13.13;3.00;;;12.50;99.90;;;;;;5024507;28;20493;-43
2022/02/17 00:30:30;;;;;;;11.68;3.08;;;12.50;99.90;;;;;;5026613;28;20040;-43
2022/02/17 00:32:55;;;;;;;11.98;3.00;;;12.50;99.90;;;;;;5028197;28;20380;-42
2022/02/17 00:35:21;;;;;;;14.73;3.13;;;12.50;99.90;;;;;;5028513;28;20148;-43
2022/02/17 00:37:46;;;;;;;12.65;3.00;;;12.50;99.90;;;;;;5028376;28;20132;-43
2022/02/17 00:40:12;;;;;;;14.88;3.17;;;12.40;99.90;;;;;;5027043;28;20075;-43
2022/02/17 00:42:37;;;;;;;10.82;2.58;;;12.40;99.90;;;;;;5028026;28;20026;-43
2022/02/17 00:45:03;;;;;;;10.02;2.60;;;12.40;99.90;;;;;;5028139;28;20105;-43
2022/02/17 00:47:29;;;;;;;13.38;2.67;;;12.30;99.90;;;;;;5027309;28;20026;-44
2022/02/17 00:49:54;;;;;;;9.68;2.28;;;12.30;99.90;;;;;;5028145;28;20025;-44
2022/02/17 00:52:20;;;;;;;10.63;2.35;;;12.30;99.90;;;;;;5026994;28;20633;-44
2022/02/17 00:54:47;;;;;;;12.52;3.28;;;12.30;99.90;;;;;;5027679;28;20037;-46
2022/02/17 00:57:13;;;;;;;10.73;3.00;;;12.30;99.90;;;;;;5027634;28;20215;-42
2022/02/17 00:59:40;;;;;;;12.13;2.97;;;12.30;99.90;;;;;;5028123;28;20112;-43
2022/02/17 01:02:06;;;;;;;13.82;3.10;;;12.30;99.90;;;;;;5027449;28;20029;-42
2022/02/17 01:04:31;;;;;;;11.05;3.10;;;12.30;99.90;;;;;;5027097;28;20102;-44
2022/02/17 01:06:57;;;;;;;12.85;3.17;;;12.30;99.90;;;;;;5027171;28;20049;-44
2022/02/17 01:09:22;;;;;;;14.85;3.38;;;12.30;99.90;;;;;;5026728;28;20087;-43
2022/02/17 01:11:48;;;;;;;17.63;3.53;;;12.30;99.90;;;;;;5027619;28;20122;-44
2022/02/17 01:14:13;;;;;;;17.40;3.63;;;12.10;99.90;;;;;;5027183;28;20025;-44
2022/02/17 01:16:39;;;;;;;12.95;3.20;;;12.00;99.90;;;;;;5027017;28;20526;-43
2022/02/17 01:19:06;;;;;;;17.42;3.00;;;11.80;99.90;;;;;;5016506;28;20049;-44
2022/02/17 01:21:32;;;;;;;8.57;2.00;;;11.60;99.90;;;;;;5027235;28;20628;-44
2022/02/17 01:23:57;;;;;;;12.35;2.63;;;11.50;99.90;;;;;;5027238;28;20037;-43
2022/02/17 01:26:23;;;;;;;8.13;2.20;;;11.30;99.90;;;;;;5027559;28;20149;-43
2022/02/17 01:28:48;;;;;;;8.80;2.13;;;11.20;99.90;;;;;;5027439;28;20499;-43
2022/02/17 01:31:16;;;;;;;8.48;2.03;;;11.10;99.90;;;;;;5025926;28;20581;-43
2022/02/17 01:33:42;;;;;;;5.75;1.85;;;11.00;99.90;;;;;;5027537;28;20022;-43
2022/02/17 01:36:09;;;;;;;10.45;2.17;;;10.90;99.90;;;;;;5026103;28;20033;-44
2022/02/17 01:38:40;;;;;;;7.18;2.35;;;10.90;99.90;;;;;;5026500;28;20031;-44
2022/02/17 01:41:08;;;;;;;8.40;2.40;;;10.90;99.90;;;;;;5026667;28;20512;-43
2022/02/17 01:43:35;;;;;;;11.25;2.63;;;10.90;99.90;;;;;;5026071;28;20032;-43
2022/02/17 01:46:01;;;;;;;11.05;3.30;;;10.90;99.90;;;;;;5027829;28;20035;-43
2022/02/17 01:48:27;;;;;;;12.68;2.75;;;10.90;99.90;;;;;;5026571;28;20033;-43
2022/02/17 01:50:53;;;;;;;11.95;3.00;;;10.90;99.90;;;;;;5026556;28;20136;-43
2022/02/17 01:53:20;;;;;;;13.48;2.92;;;11.00;99.90;;;;;;5026667;28;20068;-43
2022/02/17 01:55:49;;;;;;;14.55;2.95;;;11.00;99.90;;;;;;5026928;28;20074;-43
2022/02/17 01:58:15;;;;;;;17.05;3.70;;;11.10;99.90;;;;;;5025403;28;20033;-43
2022/02/17 02:00:42;;;;;;;16.80;3.67;;;11.10;99.90;;;;;;5026950;28;20358;-43
2022/02/17 02:03:08;;;;;;;17.40;4.00;;;11.20;99.90;;;;;;5026782;28;20030;-43
2022/02/17 02:05:34;;;;;;;15.15;3.30;;;11.30;99.90;;;;;;5025439;28;20049;-44
2022/02/17 02:07:59;;;;;;;22.77;4.63;;;11.30;99.90;;;;;;5026708;28;20425;-43
2022/02/17 02:10:26;;;;;;;18.88;4.07;;;11.40;99.90;;;;;;5025951;28;20109;-44
2022/02/17 02:12:51;;;;;;;17.95;4.63;;;11.40;99.90;;;;;;5026447;28;20040;-43
2022/02/17 02:15:17;;;;;;;17.20;4.20;;;11.40;99.90;;;;;;5025821;28;20017;-42
2022/02/17 02:17:44;;;;;;;32.10;4.30;;;11.40;99.90;;;;;;5026546;28;20125;-43
2022/02/17 02:20:17;;;;;;;23.50;5.32;;;11.50;99.90;;;;;;5025112;28;20045;-43
2022/02/17 02:22:43;;;;;;;21.33;5.07;;;11.50;99.90;;;;;;5026640;28;20055;-43
2022/02/17 02:25:09;;;;;;;21.75;4.68;;;11.50;99.90;;;;;;5025942;28;20362;-43
2022/02/17 02:27:35;;;;;;;24.48;4.82;;;11.50;99.90;;;;;;5025417;28;20136;-43
2022/02/17 02:30:01;;;;;;;17.50;4.82;;;11.50;99.90;;;;;;5026472;28;20926;-44
2022/02/17 02:32:27;;;;;;;24.95;5.22;;;11.50;99.90;;;;;;5025108;28;20127;-43
2022/02/17 02:34:52;;;;;;;20.33;5.07;;;11.50;99.90;;;;;;5026255;28;20056;-44
2022/02/17 02:37:18;;;;;;;23.48;5.75;;;11.50;99.90;;;;;;5025532;28;20049;-43
2022/02/17 02:39:44;;;;;;;20.02;4.35;;;11.50;99.90;;;;;;5025989;28;20033;-44
2022/02/17 02:42:09;;;;;;;20.58;4.43;;;11.50;99.90;;;;;;5026238;28;20033;-44
2022/02/17 02:44:35;;;;;;;22.85;4.28;;;11.40;99.90;;;;;;5025909;28;20114;-44
2022/02/17 02:47:01;;;;;;;18.35;3.70;;;11.40;99.90;;;;;;5025781;28;20235;-43
2022/02/17 02:49:27;;;;;;;21.88;5.35;;;11.40;99.90;;;;;;5025342;28;20430;-43
2022/02/17 02:51:53;;;;;;;17.17;3.47;;;11.40;99.90;;;;;;5026072;28;20073;-43
2022/02/17 02:54:18;;;;;;;16.17;3.17;;;11.40;99.90;;;;;;5024822;28;20021;-43
2022/02/17 02:56:44;;;;;;;15.77;3.92;;;11.40;99.90;;;;;;5025865;28;20071;-43
2022/02/17 02:59:09;;;;;;;13.32;2.92;;;11.40;99.90;;;;;;5025716;28;20083;-43
2022/02/17 03:01:35;;;;;;;15.50;3.28;;;11.30;99.90;;;;;;5024548;28;20056;-43
2022/02/17 03:04:01;;;;;;;12.98;3.33;;;11.30;99.90;;;;;;5026317;28;20572;-43
2022/02/17 03:06:30;;;;;;;12.75;3.20;;;11.40;99.90;;;;;;5024734;28;20056;-43
2022/02/17 03:08:56;;;;;;;18.38;3.45;;;11.30;99.90;;;;;;5024722;28;20040;-44
2022/02/17 03:11:22;;;;;;;21.90;3.80;;;11.30;99.90;;;;;;5025338;28;20044;-43
2022/02/17 03:13:47;;;;;;;15.18;3.67;;;11.30;99.90;;;;;;5025584;28;20689;-43
2022/02/17 03:16:13;;;;;;;16.20;3.22;;;11.30;99.90;;;;;;5024710;28;20099;-44
2022/02/17 03:18:39;;;;;;;17.83;4.13;;;11.30;99.90;;;;;;5026014;28;20029;-42
2022/02/17 03:21:05;;;;;;;16.20;3.38;;;11.30;99.90;;;;;;5025400;28;20079;-43
2022/02/17 03:23:32;;;;;;;23.10;4.18;;;11.20;99.90;;;;;;5024599;28;20026;-43
2022/02/17 03:25:57;;;;;;;12.65;3.20;;;11.20;99.90;;;;;;5025757;28;20049;-43
2022/02/17 03:28:23;;;;;;;15.20;3.00;;;11.20;99.90;;;;;;5025390;28;20779;-44
2022/02/17 03:30:49;;;;;;;15.45;3.50;;;11.20;99.90;;;;;;5025057;28;20468;-43
2022/02/17 03:33:14;;;;;;;13.52;3.00;;;11.10;99.90;;;;;;5024382;28;20083;-44
2022/02/17 03:35:40;;;;;;;14.68;3.28;;;11.10;99.90;;;;;;5024907;28;20025;-43
2022/02/17 03:38:05;;;;;;;17.15;3.80;;;11.10;99.90;;;;;;5024975;28;20032;-44
2022/02/17 03:40:31;;;;;;;17.05;3.53;;;11.10;99.90;;;;;;5024601;28;20493;-43
2022/02/17 03:42:56;;;;;;;14.55;3.20;;;11.00;99.90;;;;;;5025057;28;20022;-42
2022/02/17 03:45:22;;;;;;;14.70;2.88;;;11.00;99.90;;;;;;5024650;28;20033;-44
2022/02/17 03:47:48;;;;;;;13.35;3.33;;;10.90;99.90;;;;;;5025085;28;20458;-43
2022/02/17 03:50:13;;;;;;;12.70;3.25;;;10.80;99.90;;;;;;5024461;28;20025;-43
2022/02/17 03:52:41;;;;;;;16.90;3.13;;;10.80;99.90;;;;;;5024905;28;20044;-43
2022/02/17 03:55:08;;;;;;;15.25;3.50;;;10.70;99.90;;;;;;5025765;28;20017;-42
2022/02/17 03:57:33;;;;;;;11.95;3.17;;;10.70;99.90;;;;;;5023830;28;20280;-42
2022/02/17 03:59:59;;;;;;;13.10;3.53;;;10.70;99.90;;;;;;5024909;28;20087;-43
2022/02/17 04:02:25;;;;;;;13.18;3.50;;;10.60;99.90;;;;;;5024692;28;20034;-43
2022/02/17 04:04:50;;;;;;;11.77;3.10;;;10.60;99.90;;;;;;5025977;28;20060;-43
2022/02/17 04:07:16;;;;;;;15.73;3.13;;;10.60;99.90;;;;;;5027858;28;20184;-44
2022/02/17 04:09:42;;;;;;;14.93;3.13;;;10.60;99.90;;;;;;5028933;28;20056;-42
2022/02/17 04:12:08;;;;;;;13.48;3.35;;;10.60;99.90;;;;;;5027517;28;20539;-43
2022/02/17 04:14:33;;;;;;;22.73;4.32;;;10.50;99.90;;;;;;5028662;28;20021;-43
2022/02/17 04:17:00;;;;;;;15.05;3.20;;;10.50;99.90;;;;;;5028687;28;20396;-43
2022/02/17 04:19:26;;;;;;;21.10;4.38;;;10.60;99.90;;;;;;5027402;28;20034;-43
2022/02/17 04:21:52;;;;;;;16.00;3.85;;;10.60;99.90;;;;;;5028873;28;20060;-43
2022/02/17 04:24:18;;;;;;;17.48;3.80;;;10.60;99.90;;;;;;5027847;28;20433;-43
2022/02/17 04:26:44;;;;;;;17.15;2.92;;;10.60;99.90;;;;;;5028023;28;20508;-43
2022/02/17 04:29:09;;;;;;;18.38;3.38;;;10.50;99.90;;;;;;5028296;28;20075;-43
2022/02/17 04:31:35;;;;;;;20.50;3.58;;;10.60;99.90;;;;;;5028113;28;20029;-43
2022/02/17 04:34:00;;;;;;;16.42;3.47;;;10.60;99.90;;;;;;5027314;28;20112;-42
2022/02/17 04:36:26;;;;;;;17.20;3.17;;;10.60;99.90;;;;;;5028240;28;20068;-43
2022/02/17 04:38:52;;;;;;;14.70;3.28;;;10.60;99.90;;;;;;5028340;28;20017;-43
2022/02/17 04:44:02;;;;;;;16.38;3.58;;;10.70;99.90;;;;;;5028441;28;20171;-43
2022/02/17 04:46:28;;;;;;;18.98;4.18;;;10.70;99.90;;;;;;5026855;28;20566;-44
2022/02/17 04:48:53;;;;;;;13.20;3.40;;;10.70;99.90;;;;;;5028396;28;20018;-44
2022/02/17 04:51:19;;;;;;;15.18;4.13;;;10.80;99.90;;;;;;5027907;28;20037;-44
2022/02/17 04:53:44;;;;;;;12.70;3.33;;;10.80;99.90;;;;;;5027774;28;20053;-44
2022/02/17 04:56:10;;;;;;;17.45;3.60;;;10.80;99.90;;;;;;5028386;28;20040;-44
2022/02/17 04:58:35;;;;;;;15.48;3.53;;;10.80;99.90;;;;;;5027342;28;20025;-44
2022/02/17 05:01:01;;;;;;;16.23;3.33;;;10.80;99.90;;;;;;5027575;28;20025;-44
2022/02/17 05:03:27;;;;;;;23.58;4.15;;;10.80;99.90;;;;;;5027716;28;20033;-43
2022/02/17 05:05:53;;;;;;;20.58;3.58;;;10.70;99.90;;;;;;5027684;28;20037;-43
2022/02/17 05:08:19;;;;;;;14.77;3.97;;;10.70;99.90;;;;;;5027450;28;20041;-42
2022/02/17 05:10:49;;;;;;;14.70;3.92;;;10.80;99.90;;;;;;5027456;28;20033;-43
2022/02/17 05:13:15;;;;;;;15.20;3.92;;;10.70;99.90;;;;;;5007262;28;20637;-44
2022/02/17 05:15:41;;;;;;;18.55;4.10;;;10.70;99.90;;;;;;5020328;28;20112;-44
2022/02/17 05:18:07;;;;;;;16.13;4.05;;;10.70;99.90;;;;;;5027312;28;20029;-43
2022/02/17 05:20:33;;;;;;;23.13;4.55;;;10.70;99.90;;;;;;5026954;28;20469;-44
2022/02/17 05:22:58;;;;;;;18.63;4.05;;;10.70;99.90;;;;;;5026818;28;20026;-44
2022/02/17 05:25:24;;;;;;;16.73;3.35;;;10.70;99.90;;;;;;5026805;28;20381;-44
2022/02/17 05:27:50;;;;;;;16.48;4.10;;;10.60;99.90;;;;;;5027653;28;20461;-43
2022/02/17 05:30:16;;;;;;;18.08;4.43;;;10.60;99.90;;;;;;5026340;28;20080;-43
2022/02/17 05:32:42;;;;;;;22.27;4.93;;;10.60;99.90;;;;;;5027190;28;20405;-44
2022/02/17 05:35:10;;;;;;;15.45;4.88;;;10.60;99.90;;;;;;5026651;28;20041;-44
2022/02/17 05:37:37;;;;;;;24.33;5.57;;;10.60;99.90;;;;;;5027028;28;20116;-44
2022/02/17 05:40:05;;;;;;;23.20;4.28;;;10.40;99.90;;;;;;5026902;28;20037;-44
2022/02/17 05:42:31;;;;;;;19.50;4.00;;;10.10;99.90;;;;;;5026003;28;20132;-43
2022/02/17 05:44:57;;;;;;;19.63;4.53;;;9.60;99.90;;;;;;5027010;28;20104;-43
2022/02/17 05:47:23;;;;;;;29.35;4.90;;;9.20;99.90;;;;;;5025990;28;20025;-44
2022/02/17 05:49:48;;;;;;;17.83;3.67;;;8.90;99.90;;;;;;5026292;28;20067;-42
2022/02/17 05:52:14;;;;;;;17.60;3.50;;;8.70;99.90;;;;;;5026412;28;20033;-43
2022/02/17 05:54:39;;;;;;;17.05;3.25;;;8.60;99.90;;;;;;5026747;28;20488;-43
2022/02/17 05:57:05;;;;;;;16.88;3.55;;;8.50;99.90;;;;;;5025638;28;20025;-46
2022/02/17 05:59:30;;;;;;;29.67;4.57;;;8.40;99.90;;;;;;5025718;28;20448;-42
2022/02/17 06:01:56;;;;;;;19.27;3.60;;;8.40;99.90;;;;;;5026958;28;20025;-43
2022/02/17 06:04:21;;;;;;;20.83;4.22;;;8.30;99.90;;;;;;5025911;28;20033;-44
2022/02/17 06:06:47;;;;;;;24.50;4.05;;;8.30;99.90;;;;;;5026579;28;20052;-43
2022/02/17 06:09:12;;;;;;;15.88;3.25;;;8.30;99.90;;;;;;5026474;28;20641;-42
2022/02/17 06:11:38;;;;;;;16.83;3.67;;;8.30;99.90;;;;;;5025167;28;20029;-43
2022/02/17 06:14:04;;;;;;;20.50;3.72;;;8.30;99.90;;;;;;5026838;28;20025;-42
2022/02/17 06:16:29;;;;;;;14.48;3.30;;;8.20;99.90;;;;;;5025844;28;20149;-42
2022/02/17 06:18:55;;;;;;;16.75;3.35;;;8.30;99.90;;;;;;5026386;28;20072;-43
2022/02/17 06:21:20;;;;;;;21.30;3.90;;;8.30;99.90;;;;;;5025951;28;20026;-43
2022/02/17 06:23:46;;;;;;;13.43;3.22;;;8.30;99.90;;;;;;5026636;28;20025;-44
2022/02/17 06:26:11;;;;;;;18.00;3.53;;;8.40;99.90;;;;;;5026030;28;20030;-44
2022/02/17 06:28:36;;;;;;;18.98;3.17;;;8.50;99.90;;;;;;5025998;28;20037;-43
2022/02/17 06:31:03;;;;;;;16.98;4.10;;;8.50;99.90;;;;;;5026797;28;20026;-44
2022/02/17 06:33:28;;;;;;;17.38;4.40;;;8.60;99.90;;;;;;5025018;28;20144;-43
2022/02/17 06:35:54;;;;;;;17.52;3.65;;;8.70;99.90;;;;;;5026249;28;20132;-43
2022/02/17 06:38:19;;;;;;;16.92;3.28;;;8.70;99.90;;;;;;5025481;28;20033;-43
2022/02/17 06:40:45;;;;;;;15.07;3.33;;;8.70;99.90;;;;;;5025875;28;20057;-43
2022/02/17 06:43:13;;;;;;;22.05;4.55;;;8.80;99.90;;;;;;5025663;28;20021;-43
2022/02/17 06:45:40;;;;;;;16.70;3.70;;;8.80;99.90;;;;;;5024892;28;20744;-43
2022/02/17 06:48:07;;;;;;;11.82;2.80;;;8.90;99.90;;;;;;5025491;28;20469;-43
2022/02/17 06:50:33;;;;;;;12.20;2.97;;;8.90;99.90;;;;;;5025914;28;20113;-43
2022/02/17 06:52:59;;;;;;;18.45;3.15;;;8.90;99.90;;;;;;5024914;28;20090;-43
2022/02/17 06:55:24;;;;;;;12.57;2.40;;;9.00;99.90;;;;;;5025011;28;20029;-44
2022/02/17 06:57:50;;;;;;;13.70;3.50;;;9.00;99.90;;;;;;5025852;28;20041;-44
2022/02/17 07:00:16;;;;;;;7.63;2.50;;;9.10;99.90;;;;;;5024501;28;20790;-44
2022/02/17 07:02:52;;;;;;;10.73;2.15;;;9.10;99.90;;;;;;5025526;28;20024;-43
2022/02/17 07:05:18;;;;;;;10.98;3.58;;;9.20;99.90;;;;;;5022884;28;20052;-44
2022/02/17 07:07:44;;;;;;;10.07;3.08;;;9.20;99.90;;;;;;5024881;28;20533;-43
2022/02/17 07:10:09;;;;;;;16.38;2.85;;;9.30;99.90;;;;;;5025125;28;20029;-43
2022/02/17 07:12:35;;;;;;;11.57;2.80;;;9.30;99.90;;;;;;5025632;28;20017;-43
2022/02/17 07:15:02;;;;;;;13.00;2.90;;;9.30;99.90;;;;;;5024811;28;20018;-43
2022/02/17 07:17:27;;;;;;;8.13;1.70;;;9.20;99.90;;;;;;5025511;28;20033;-42
2022/02/17 07:19:53;;;;;;;10.95;1.90;;;9.20;99.90;;;;;;5025617;28;20079;-43
2022/02/17 07:22:19;;;;;;;7.28;1.88;;;9.20;99.90;;;;;;5024567;28;20030;-44
2022/02/17 07:24:45;;;;;;;7.63;1.60;;;9.20;99.90;;;;;;5025365;28;20021;-44
2022/02/17 07:27:10;;;;;;;9.15;2.10;;;9.10;99.90;;;;;;5025719;28;20028;-43
2022/02/17 07:29:36;;;;;;;9.85;1.88;;;9.10;99.90;;;;;;5024071;28;20024;-44
2022/02/17 07:32:04;;;;;;;6.20;1.55;;;9.00;99.90;;;;;;5025396;28;20029;-42
2022/02/17 07:34:30;;;;;;;9.52;2.00;;;9.10;99.90;;;;;;5025157;28;20033;-44
2022/02/17 07:36:55;;;;;;;5.97;1.90;;;9.00;99.90;;;;;;5024329;28;20036;-44
2022/02/17 07:39:21;;;;;;;5.60;1.58;;;9.10;99.90;;;;;;5025557;28;20028;-44
2022/02/17 07:41:48;;;;;;;11.23;2.33;;;9.10;99.90;;;;;;5029433;28;20036;-42
2022/02/17 07:44:13;;;;;;;11.80;2.30;;;9.10;99.90;;;;;;5028997;28;20029;-43
2022/02/17 07:46:39;;;;;;;11.00;2.42;;;9.10;99.90;;;;;;5029370;28;20377;-43
2022/02/17 07:49:04;;;;;;;12.27;2.65;;;9.10;99.90;;;;;;5028731;28;20027;-44
2022/02/17 07:51:31;;;;;;;10.35;2.17;;;9.10;99.90;;;;;;5028641;28;20520;-42
2022/02/17 07:53:57;;;;;;;11.90;2.50;;;9.20;99.90;;;;;;5029515;28;20134;-44
2022/02/17 07:56:22;;;;;;;10.02;2.80;;;9.30;99.90;;;;;;5028416;28;20567;-44
2022/02/17 07:58:48;;;;;;;8.40;2.33;;;9.30;99.90;;;;;;5029471;28;20143;-43
2022/02/17 08:01:13;;;;;;;11.18;2.63;;;9.30;99.90;;;;;;5028357;28;20063;-43
2022/02/17 08:03:39;;;;;;;10.63;2.60;;;9.30;99.90;;;;;;5029134;28;20079;-43
2022/02/17 08:06:07;;;;;;;8.60;2.25;;;9.30;99.90;;;;;;5028755;28;20511;-42
2022/02/17 08:08:33;;;;;;;13.50;2.55;;;9.30;99.90;;;;;;5028580;28;20040;-44
2022/02/17 08:10:58;;;;;;;9.05;2.08;;;9.30;99.90;;;;;;5028365;28;20013;-45
2022/02/17 08:13:24;;;;;;;11.02;2.35;;;9.40;99.90;;;;;;5028235;28;20216;-43
2022/02/17 08:15:50;;;;;;;7.75;2.00;;;9.50;99.90;;;;;;5028660;28;20465;-43
2022/02/17 08:18:16;;;;;;;7.78;2.55;;;9.50;99.90;;;;;;5027728;28;20030;-43
2022/02/17 08:20:44;;;;;;;8.30;2.00;;;9.60;99.90;;;;;;5028267;28;20025;-43
2022/02/17 08:23:10;;;;;;;8.35;1.90;;;9.50;99.90;;;;;;5028144;28;20865;-44
2022/02/17 08:25:35;;;;;;;7.90;2.03;;;9.50;99.90;;;;;;5027606;28;20017;-43
2022/02/17 08:28:01;;;;;;;11.45;2.40;;;9.60;99.90;;;;;;5028605;28;20029;-43
2022/02/17 08:30:28;;;;;;;7.93;2.08;;;9.60;99.90;;;;;;5028406;28;20032;-43
2022/02/17 08:32:56;;;;;;;11.07;1.88;;;9.60;99.90;;;;;;5027743;28;20017;-43
2022/02/17 08:35:21;;;;;;;11.02;1.90;;;9.60;99.90;;;;;;5027904;28;20469;-44
2022/02/17 08:37:47;;;;;;;8.73;1.52;;;9.60;99.90;;;;;;5028006;28;20034;-43
2022/02/17 08:40:13;;;;;;;7.13;1.80;;;9.60;99.90;;;;;;5027785;28;20065;-43
2022/02/17 08:42:39;;;;;;;10.68;2.00;;;9.60;99.90;;;;;;5027709;28;20040;-44
2022/02/17 08:45:05;;;;;;;7.40;1.77;;;9.60;99.90;;;;;;5027973;28;20083;-42
2022/02/17 08:47:31;;;;;;;11.43;2.70;;;9.60;99.90;;;;;;5027939;28;20032;-42
2022/02/17 08:49:56;;;;;;;11.20;2.13;;;9.60;99.90;;;;;;5027865;28;20029;-44
2022/02/17 08:52:22;;;;;;;9.90;2.40;;;9.70;99.90;;;;;;5026992;28;20037;-44
2022/02/17 08:54:49;;;;;;;10.15;2.28;;;9.70;99.90;;;;;;5028553;28;20028;-44
2022/02/17 08:57:14;;;;;;;7.32;1.98;;;9.70;99.90;;;;;;5027498;28;20041;-43
2022/02/17 08:59:40;;;;;;;8.88;2.08;;;9.70;99.90;;;;;;5027440;28;20562;-44
2022/02/17 09:02:05;;;;;;;11.13;2.30;;;9.70;99.90;;;;;;5027906;28;20013;-42
2022/02/17 09:04:32;;;;;;;12.15;2.10;;;9.80;99.90;;;;;;5027566;28;20528;-43
2022/02/17 09:06:58;;;;;;;8.18;1.63;;;9.80;99.90;;;;;;5027097;28;20060;-43
2022/02/17 09:09:24;;;;;;;13.32;2.67;;;9.80;99.90;;;;;;5027258;28;20389;-44
2022/02/17 09:11:50;;;;;;;8.05;1.75;;;9.90;99.70;;;;;;5028144;28;20040;-43
2022/02/17 09:14:15;;;;;;;8.52;2.47;;;9.90;99.70;;;;;;5026052;28;20034;-43
2022/02/17 09:16:41;;;;;;;7.75;1.83;;;9.90;99.40;;;;;;5028077;28;20044;-43
2022/02/17 09:19:06;;;;;;;6.25;1.52;;;9.90;99.30;;;;;;5027638;28;20036;-43
2022/02/17 09:21:32;;;;;;;9.45;1.95;;;9.90;98.60;;;;;;5026422;28;20119;-43
2022/02/17 09:23:59;;;;;;;7.47;1.80;;;9.90;98.70;;;;;;5027847;28;20032;-44
2022/02/17 09:26:24;;;;;;;8.82;1.75;;;9.90;98.30;;;;;;5026760;28;20466;-43
2022/02/17 09:28:50;;;;;;;8.63;2.15;;;9.90;98.70;;;;;;5026503;28;20025;-43
2022/02/17 09:31:19;;;;;;;8.63;1.90;;;10.00;98.60;;;;;;5027475;28;20025;-43
2022/02/17 09:33:49;;;;;;;5.82;1.92;;;10.00;98.20;;;;;;5027630;28;20164;-43
2022/02/17 09:36:15;;;;;;;9.25;2.08;;;10.00;97.80;;;;;;5026891;28;20036;-42
2022/02/17 09:38:41;;;;;;;8.75;1.85;;;10.00;97.70;;;;;;5027501;28;20017;-42
2022/02/17 09:41:08;;;;;;;13.73;2.20;;;10.00;97.30;;;;;;5027560;28;20017;-44
2022/02/17 09:43:35;;;;;;;11.60;2.25;;;10.00;97.60;;;;;;5026513;28;20786;-43
2022/02/17 09:46:01;;;;;;;8.13;1.60;;;10.00;97.60;;;;;;5027221;28;20013;-43
2022/02/17 09:48:27;;;;;;;6.88;1.38;;;10.00;97.30;;;;;;5026226;28;20060;-43
2022/02/17 09:50:53;;;;;;;8.15;1.67;;;10.00;97.00;;;;;;5026911;28;20067;-44
2022/02/17 09:53:18;;;;;;;5.65;1.30;;;10.00;96.70;;;;;;5026543;28;20523;-44
2022/02/17 09:55:44;;;;;;;6.00;1.48;;;10.10;96.60;;;;;;5026612;28;20029;-43
2022/02/17 09:58:10;;;;;;;5.43;1.73;;;10.10;96.20;;;;;;5026602;28;20055;-42
2022/02/17 10:00:36;;;;;;;8.52;2.00;;;10.00;95.80;;;;;;5026546;28;20037;-43
2022/02/17 10:03:20;;;;;;;5.55;1.65;;;10.00;96.20;;;;;;5025876;28;20124;-43
2022/02/17 10:06:22;;;;;;;8.15;1.63;;;10.10;96.50;;;;;;5026860;28;20090;-43
2022/02/17 10:08:47;;;;;;;5.07;1.25;;;10.10;96.50;;;;;;4965410;28;20508;-44
2022/02/17 10:11:33;;;;;;;5.03;1.30;;;10.20;96.50;;;;;;5011227;28;20037;-44
2022/02/17 10:14:04;;;;;;;5.50;1.20;;;10.20;96.40;;;;;;5026347;28;20503;-43
2022/02/17 10:16:32;;;;;;;9.07;1.90;;;10.30;96.20;;;;;;5025310;28;20041;-44
2022/02/17 10:19:10;;;;;;;7.25;1.92;;;10.30;96.30;;;;;;5026941;28;20030;-42
2022/02/17 10:21:35;;;;;;;7.07;1.60;;;10.40;96.60;;;;;;5025810;28;20045;-43
2022/02/17 10:24:01;;;;;;;16.38;2.42;;;10.50;96.10;;;;;;5026496;28;20084;-44
2022/02/17 10:26:28;;;;;;;7.05;1.73;;;10.60;96.40;;;;;;5025367;28;20403;-43
2022/02/17 10:28:57;;;;;;;8.23;1.90;;;10.60;96.30;;;;;;5026576;28;20022;-44
2022/02/17 10:31:29;;;;;;;9.77;1.98;;;10.70;96.30;;;;;;5025360;28;20393;-44
2022/02/17 10:33:57;;;;;;;9.98;2.05;;;10.70;96.30;;;;;;5026332;28;20021;-43
2022/02/17 10:36:40;;;;;;;8.25;1.75;;;10.70;96.30;;;;;;5025632;28;20060;-43
2022/02/17 10:39:22;;;;;;;7.85;1.60;;;10.70;95.70;;;;;;5026282;28;20057;-44
2022/02/17 10:42:01;;;;;;;7.03;1.75;;;10.70;96.20;;;;;;5025947;28;20040;-43
2022/02/17 10:44:31;;;;;;;10.85;1.80;;;10.70;95.90;;;;;;5006313;28;20026;-44
2022/02/17 10:47:09;;;;;;;8.13;2.42;;;10.70;95.70;;;;;;5021476;28;20086;-44
2022/02/17 10:49:40;;;;;;;9.38;1.80;;;10.60;95.50;;;;;;5009749;28;20026;-43
2022/02/17 10:52:06;;;;;;;5.28;1.40;;;10.60;95.70;;;;;;5025270;28;20021;-43
2022/02/17 10:54:31;;;;;;;6.65;1.85;;;10.60;96.00;;;;;;5025714;28;20044;-43
2022/02/17 10:57:02;;;;;;;6.82;1.45;;;10.70;96.00;;;;;;5026018;28;20025;-43
2022/02/17 11:02:21;;;;;;;13.95;1.90;;;10.70;94.90;;;;;;5025059;28;20048;-43
2022/02/17 11:04:47;;;;;;;5.60;1.60;;;10.60;94.80;;;;;;5026220;28;20548;-43
2022/02/17 11:07:13;;;;;;;7.95;1.80;;;10.60;95.00;;;;;;5024369;28;20058;-43
2022/02/17 11:09:40;;;;;;;7.50;1.70;;;10.60;95.00;;;;;;5025353;28;20029;-43
2022/02/17 11:12:06;;;;;;;12.23;2.00;;;10.70;94.30;;;;;;5026131;28;20047;-43
2022/02/17 11:14:40;;;;;;;6.15;1.65;;;10.60;94.40;;;;;;5023660;28;20570;-43
2022/02/17 11:17:06;;;;;;;6.97;1.50;;;10.60;94.20;;;;;;5025322;28;20025;-42
2022/02/17 11:19:33;;;;;;;4.75;1.50;;;10.50;94.20;;;;;;5025740;28;20027;-43
2022/02/17 11:21:59;;;;;;;6.63;1.90;;;10.50;94.10;;;;;;5024880;28;20049;-42
2022/02/17 11:24:25;;;;;;;9.57;1.60;;;10.50;94.20;;;;;;5025325;28;20033;-43
2022/02/17 11:27:05;;;;;;;11.63;1.98;;;10.50;94.20;;;;;;5025437;28;20514;-43
2022/02/17 11:29:36;;;;;;;9.18;1.42;;;10.50;94.00;;;;;;5014539;28;20092;-44
2022/02/17 11:32:05;;;;;;;7.70;1.70;;;10.50;93.70;;;;;;5025535;28;20034;-43
2022/02/17 11:34:35;;;;;;;12.88;1.77;;;10.60;94.00;;;;;;5024653;28;20049;-43
2022/02/17 11:37:20;;;;;;;5.57;1.42;;;10.60;93.60;;;;;;5025340;28;20087;-45
2022/02/17 11:39:59;;;;;;;8.02;1.75;;;10.70;94.00;;;;;;5025342;28;20849;-42
2022/02/17 11:42:36;;;;;;;5.25;1.98;;;10.70;94.20;;;;;;5024341;28;20048;-44
2022/02/17 11:45:20;;;;;;;7.80;1.60;;;10.70;93.70;;;;;;5014769;28;20087;-44
2022/02/17 11:48:08;;;;;;;5.88;1.50;;;10.70;94.20;;;;;;5025411;28;20053;-42
2022/02/17 11:50:42;;;;;;;4.88;1.48;;;10.80;94.30;;;;;;5025414;28;20452;-43
2022/02/17 11:53:29;;;;;;;3.58;1.10;;;10.80;94.30;;;;;;5024763;28;20446;-44
2022/02/17 11:56:18;;;;;;;8.65;1.60;;;10.90;93.80;;;;;;5024597;28;20433;-43
2022/02/17 11:58:49;;;;;;;10.65;2.33;;;10.90;93.90;;;;;;5025075;28;20052;-43
2022/02/17 12:01:26;;;;;;;8.48;1.80;;;10.90;94.10;;;;;;5025336;28;20026;-43
2022/02/17 12:04:02;;;;;;;10.75;1.98;;;10.90;94.10;;;;;;5024348;28;20477;-43
2022/02/17 12:06:38;;;;;;;8.85;1.65;;;10.90;93.70;;;;;;5024382;28;20054;-43
2022/02/17 12:09:06;;;;;;;7.18;1.70;;;11.00;94.20;;;;;;5024588;28;20029;-43
2022/02/17 12:11:36;;;;;;;9.07;1.92;;;11.20;94.50;;;;;;5024509;28;20806;-43
2022/02/17 12:14:05;;;;;;;7.38;1.30;;;11.30;94.30;;;;;;5024937;28;20432;-44
2022/02/17 12:16:39;;;;;;;5.47;1.45;;;11.40;93.40;;;;;;5023889;28;20025;-42
2022/02/17 12:19:18;;;;;;;5.85;1.50;;;11.50;92.80;;;;;;5025059;28;20476;-43
2022/02/17 12:21:45;;;;;;;7.90;1.73;;;11.40;93.20;;;;;;5025397;28;20025;-43
2022/02/17 12:24:13;;;;;;;7.97;2.20;;;11.40;93.00;;;;;;5024082;28;20048;-42
2022/02/17 12:26:51;;;;;;;8.00;1.50;;;11.30;93.20;;;;;;5028204;28;20021;-43
2022/02/17 12:29:33;;;;;;;6.82;1.70;;;11.30;93.00;;;;;;5027951;28;20029;-43
2022/02/17 12:32:00;;;;;;;7.45;1.80;;;11.20;93.40;;;;;;5027763;28;20030;-43
2022/02/17 12:34:26;;;;;;;7.07;1.60;;;11.20;92.80;;;;;;5028538;28;20112;-43
2022/02/17 12:36:53;;;;;;;5.97;1.35;;;11.20;92.40;;;;;;5028820;28;20096;-43
2022/02/17 12:39:20;;;;;;;10.20;2.08;;;11.20;92.40;;;;;;5027341;28;20033;-44
2022/02/17 12:42:02;;;;;;;7.40;1.67;;;11.10;92.20;;;;;;5028321;28;20112;-44
2022/02/17 12:44:30;;;;;;;5.60;1.42;;;11.10;92.50;;;;;;5027387;28;20028;-43
2022/02/17 12:47:00;;;;;;;5.35;1.50;;;11.00;91.60;;;;;;5028875;28;20025;-43
2022/02/17 12:49:29;;;;;;;7.30;1.98;;;10.90;92.30;;;;;;5027711;28;20052;-42